Time;durP1;ratioP1;P1;durP2;ratioP2;P2;SDS_P1;SDS_P2;PMS_P1;PMS_P2;Temp;Humidity;BMP_temperature;BMP_pressure;BME280_temperature;BME280_humidity;BME280_pressure;Samples;Min_cycle;Max_cycle;Signal;HPM_P1;HPM_P2
2023/06/09 00:01:37;;;;;;;16.23;14.83;;;22.20;47.00;;;;;;5070943;28;20621;-56
2023/06/09 00:04:04;;;;;;;17.90;16.30;;;22.10;47.10;;;;;;5072436;28;20180;-57
2023/06/09 00:06:30;;;;;;;16.60;14.90;;;22.20;47.10;;;;;;5072017;28;20418;-53
2023/06/09 00:08:59;;;;;;;16.40;14.80;;;22.20;46.90;;;;;;5070931;28;20414;-55
2023/06/09 00:11:26;;;;;;;16.73;15.13;;;22.20;46.90;;;;;;5072183;28;20411;-53
2023/06/09 00:13:53;;;;;;;17.87;15.67;;;22.10;47.10;;;;;;5071961;28;20550;-54
2023/06/09 00:16:18;;;;;;;17.27;15.73;;;22.10;47.10;;;;;;5072271;28;20407;-55
2023/06/09 00:18:45;;;;;;;16.80;15.20;;;22.00;47.10;;;;;;5071980;28;20488;-54
2023/06/09 00:21:18;;;;;;;17.07;15.37;;;22.00;47.10;;;;;;5071738;28;20181;-52
2023/06/09 00:23:48;;;;;;;16.30;14.57;;;22.00;47.10;;;;;;5072037;28;20411;-58
2023/06/09 00:26:14;;;;;;;16.40;14.70;;;22.00;47.20;;;;;;5071946;28;20499;-55
2023/06/09 00:28:42;;;;;;;15.43;13.83;;;21.90;47.00;;;;;;5071977;28;20489;-54
2023/06/09 00:31:08;;;;;;;18.20;16.47;;;21.90;47.00;;;;;;5071763;28;20418;-57
2023/06/09 00:33:34;;;;;;;15.70;14.20;;;21.90;47.10;;;;;;5071715;28;21013;-55
2023/06/09 00:36:00;;;;;;;17.43;15.90;;;21.80;46.90;;;;;;5071958;28;20185;-54
2023/06/09 00:38:26;;;;;;;15.77;14.10;;;21.80;46.90;;;;;;5070569;28;20505;-56
2023/06/09 00:40:52;;;;;;;15.50;13.87;;;21.70;47.00;;;;;;5071616;28;20260;-54
2023/06/09 00:43:18;;;;;;;17.50;15.87;;;21.80;46.70;;;;;;5071893;28;20407;-57
2023/06/09 00:45:44;;;;;;;17.17;15.50;;;21.70;46.80;;;;;;5072245;28;20426;-55
2023/06/09 00:48:11;;;;;;;16.30;14.90;;;21.60;46.90;;;;;;5075586;28;20204;-52
2023/06/09 00:50:38;;;;;;;17.37;15.57;;;21.60;46.90;;;;;;5075501;28;20414;-56
2023/06/09 00:53:04;;;;;;;17.90;16.13;;;21.60;46.80;;;;;;5076076;28;20429;-53
2023/06/09 00:55:32;;;;;;;16.17;14.57;;;21.60;46.90;;;;;;5075807;28;20418;-54
2023/06/09 00:58:01;;;;;;;17.40;15.80;;;21.50;46.90;;;;;;5076045;28;20426;-54
2023/06/09 01:00:28;;;;;;;15.30;13.70;;;21.50;47.10;;;;;;5075386;28;20411;-54
2023/06/09 01:03:02;;;;;;;15.30;14.00;;;21.50;46.90;;;;;;5075753;28;20403;-56
2023/06/09 01:05:33;;;;;;;14.80;13.50;;;21.40;46.80;;;;;;5075775;28;20433;-56
2023/06/09 01:08:16;;;;;;;16.07;14.63;;;21.40;46.90;;;;;;5075382;28;20422;-55
2023/06/09 01:11:17;;;;;;;15.27;13.97;;;21.30;47.10;;;;;;5075249;28;20953;-55
2023/06/09 01:13:55;;;;;;;14.80;13.40;;;21.30;47.10;;;;;;5074286;28;20837;-53
2023/06/09 01:16:31;;;;;;;15.40;13.57;;;21.30;47.30;;;;;;5075334;28;20390;-55
2023/06/09 01:18:59;;;;;;;15.10;13.70;;;21.20;47.10;;;;;;5075220;28;20536;-57
2023/06/09 01:21:40;;;;;;;15.07;13.67;;;21.20;47.20;;;;;;5075210;28;20411;-55
2023/06/09 01:24:45;;;;;;;14.90;13.47;;;21.20;47.40;;;;;;5074007;28;20496;-55
2023/06/09 01:27:14;;;;;;;12.70;11.60;;;21.20;47.40;;;;;;5075031;28;20493;-55
2023/06/09 01:29:43;;;;;;;13.53;12.23;;;21.20;47.30;;;;;;5074829;28;20434;-56
2023/06/09 01:32:12;;;;;;;13.90;12.70;;;21.10;47.20;;;;;;5075108;28;21167;-53
2023/06/09 01:34:39;;;;;;;14.33;13.03;;;21.10;47.40;;;;;;5074834;28;20955;-55
2023/06/09 01:37:06;;;;;;;13.87;12.57;;;21.10;47.40;;;;;;5074935;28;20418;-54
2023/06/09 01:39:32;;;;;;;13.30;12.20;;;21.10;47.30;;;;;;5074577;28;20407;-56
2023/06/09 01:41:58;;;;;;;15.43;13.67;;;21.00;47.30;;;;;;5074870;28;20441;-55
2023/06/09 01:44:24;;;;;;;14.63;13.30;;;21.00;47.60;;;;;;5074760;28;20992;-57
2023/06/09 01:46:50;;;;;;;14.13;12.73;;;21.00;47.80;;;;;;5074953;28;20189;-53
2023/06/09 01:49:32;;;;;;;13.77;12.27;;;21.00;47.80;;;;;;5074564;28;20172;-56
2023/06/09 01:52:21;;;;;;;14.90;13.40;;;21.00;47.60;;;;;;5074689;28;20540;-53
2023/06/09 01:54:58;;;;;;;15.67;13.83;;;21.00;47.60;;;;;;5074539;28;20826;-53
2023/06/09 01:57:35;;;;;;;13.80;12.57;;;20.90;47.60;;;;;;5073814;28;20445;-53
2023/06/09 02:00:05;;;;;;;13.47;12.20;;;20.90;47.60;;;;;;5074324;28;20497;-53
2023/06/09 02:02:33;;;;;;;13.17;11.97;;;20.80;47.40;;;;;;5073137;28;20468;-55
2023/06/09 02:05:02;;;;;;;13.57;12.30;;;20.80;47.50;;;;;;5074464;28;20950;-57
2023/06/09 02:07:30;;;;;;;13.40;12.10;;;20.80;47.50;;;;;;5074373;28;20437;-53
2023/06/09 02:09:56;;;;;;;12.33;11.13;;;20.80;47.50;;;;;;5074186;28;20475;-53
2023/06/09 02:12:22;;;;;;;12.57;11.43;;;20.70;47.40;;;;;;5074319;28;20438;-54
2023/06/09 02:14:48;;;;;;;13.90;11.20;;;20.70;47.70;;;;;;5074142;28;20962;-55
2023/06/09 02:17:14;;;;;;;16.90;13.80;;;20.60;47.60;;;;;;5074086;28;20419;-53
2023/06/09 02:19:39;;;;;;;14.60;13.20;;;20.60;47.70;;;;;;5074184;28;20176;-55
2023/06/09 02:22:06;;;;;;;15.17;13.60;;;20.60;47.60;;;;;;5074397;28;20173;-56
2023/06/09 02:24:33;;;;;;;14.83;13.40;;;20.60;47.50;;;;;;5074348;28;20208;-52
2023/06/09 02:26:59;;;;;;;12.23;11.03;;;20.60;47.30;;;;;;5073976;28;20427;-54
2023/06/09 02:29:26;;;;;;;17.60;15.57;;;20.60;47.20;;;;;;5074068;28;20414;-57
2023/06/09 02:31:54;;;;;;;20.13;18.03;;;20.60;47.40;;;;;;5073899;28;20399;-55
2023/06/09 02:34:22;;;;;;;16.63;15.00;;;20.60;47.30;;;;;;5073758;28;20450;-54
2023/06/09 02:36:52;;;;;;;16.03;14.43;;;20.60;47.10;;;;;;5073780;28;20430;-56
2023/06/09 02:39:21;;;;;;;18.87;16.97;;;20.50;47.20;;;;;;5073744;28;20400;-55
2023/06/09 02:41:47;;;;;;;16.40;14.73;;;20.50;47.20;;;;;;5073749;28;20410;-53
2023/06/09 02:44:13;;;;;;;17.67;15.87;;;20.40;47.30;;;;;;5073774;28;20407;-58
2023/06/09 02:46:40;;;;;;;18.43;16.67;;;20.40;47.40;;;;;;5073561;28;20407;-55
2023/06/09 02:49:06;;;;;;;17.47;15.87;;;20.40;47.30;;;;;;5073400;28;20415;-53
2023/06/09 02:51:32;;;;;;;16.17;14.47;;;20.40;47.30;;;;;;5073495;28;20410;-54
2023/06/09 02:53:58;;;;;;;17.40;15.80;;;20.40;47.20;;;;;;5073462;28;20446;-58
2023/06/09 02:56:26;;;;;;;16.63;14.93;;;20.40;47.00;;;;;;5072065;28;20395;-57
2023/06/09 02:58:53;;;;;;;14.80;13.40;;;20.40;46.90;;;;;;5073452;28;20531;-53
2023/06/09 03:01:20;;;;;;;16.03;14.33;;;20.30;46.90;;;;;;5073044;28;20414;-54
2023/06/09 03:03:49;;;;;;;15.37;13.90;;;20.20;47.10;;;;;;5073346;28;20407;-56
2023/06/09 03:06:16;;;;;;;15.10;13.70;;;20.20;47.40;;;;;;5073199;28;20407;-53
2023/06/09 03:08:43;;;;;;;15.73;14.00;;;20.20;47.60;;;;;;5073404;28;20462;-53
2023/06/09 03:11:09;;;;;;;14.63;13.33;;;20.20;47.60;;;;;;5072919;28;20418;-55
2023/06/09 03:13:36;;;;;;;14.33;13.00;;;20.20;47.70;;;;;;5072994;28;20498;-56
2023/06/09 03:16:03;;;;;;;15.57;14.07;;;20.20;47.60;;;;;;5072983;28;20403;-54
2023/06/09 03:18:29;;;;;;;13.93;12.53;;;20.20;47.40;;;;;;5073216;28;20482;-54
2023/06/09 03:20:55;;;;;;;15.70;14.00;;;20.20;47.40;;;;;;5072913;28;20775;-56
2023/06/09 03:23:46;;;;;;;13.47;12.17;;;20.20;47.10;;;;;;5073045;28;20418;-57
2023/06/09 03:26:12;;;;;;;11.95;10.75;;;20.20;47.20;;;;;;5072914;28;20399;-55
2023/06/09 03:28:37;;;;;;;13.13;11.83;;;20.10;47.30;;;;;;5072658;28;20204;-53
2023/06/09 03:31:03;;;;;;;12.50;10.80;;;20.10;47.30;;;;;;5071217;28;20195;-54
2023/06/09 03:33:29;;;;;;;13.60;12.33;;;20.10;47.10;;;;;;5072864;28;20544;-55
2023/06/09 03:35:55;;;;;;;16.02;13.48;;;20.00;47.30;;;;;;5072845;28;20202;-56
2023/06/09 03:38:21;;;;;;;15.77;14.17;;;20.00;47.60;;;;;;5072616;28;20241;-55
2023/06/09 03:40:47;;;;;;;14.00;12.60;;;20.00;47.70;;;;;;5072479;28;20169;-56
2023/06/09 03:43:12;;;;;;;14.10;12.80;;;20.10;47.80;;;;;;5072483;28;20303;-53
2023/06/09 03:45:38;;;;;;;13.70;12.47;;;20.10;48.10;;;;;;5072475;28;20168;-53
2023/06/09 03:48:06;;;;;;;15.30;14.00;;;20.10;47.90;;;;;;5072581;28;20475;-54
2023/06/09 03:50:33;;;;;;;13.93;12.77;;;20.20;48.20;;;;;;5072363;28;20169;-54
2023/06/09 03:52:58;;;;;;;15.13;13.73;;;20.20;48.10;;;;;;5072333;28;20222;-54
2023/06/09 03:55:25;;;;;;;14.33;12.93;;;20.20;48.10;;;;;;5072264;28;20200;-57
2023/06/09 03:57:51;;;;;;;16.37;14.77;;;20.30;48.30;;;;;;5072242;28;20192;-55
2023/06/09 04:00:17;;;;;;;15.30;13.87;;;20.30;48.40;;;;;;5072116;28;20437;-56
2023/06/09 04:02:43;;;;;;;15.23;13.93;;;20.40;48.50;;;;;;5072501;28;20482;-54
2023/06/09 04:05:09;;;;;;;13.90;12.73;;;20.40;48.50;;;;;;5072315;28;20438;-58
2023/06/09 04:07:35;;;;;;;13.93;12.73;;;20.50;48.60;;;;;;5072127;28;20425;-57
2023/06/09 04:10:02;;;;;;;13.87;12.43;;;20.50;48.70;;;;;;5070630;28;20176;-57
2023/06/09 04:12:28;;;;;;;16.00;14.50;;;20.50;48.90;;;;;;5072095;28;20242;-54
2023/06/09 04:14:55;;;;;;;15.83;14.23;;;20.50;48.90;;;;;;5072245;28;20454;-57
2023/06/09 04:17:22;;;;;;;14.40;13.13;;;20.60;48.90;;;;;;5072128;28;20455;-56
2023/06/09 04:19:48;;;;;;;14.33;13.03;;;20.70;49.00;;;;;;5071945;28;20438;-57
2023/06/09 04:22:14;;;;;;;13.47;12.23;;;20.70;49.00;;;;;;5070340;28;20943;-58
2023/06/09 04:24:40;;;;;;;13.43;12.33;;;20.80;49.00;;;;;;5071916;28;20422;-53
2023/06/09 04:27:07;;;;;;;15.03;13.80;;;20.80;49.10;;;;;;5071829;28;20188;-55
2023/06/09 04:29:33;;;;;;;12.73;11.60;;;20.80;49.20;;;;;;5071714;28;20256;-58
2023/06/09 04:32:00;;;;;;;13.93;12.70;;;20.90;49.30;;;;;;5072150;28;20485;-56
2023/06/09 04:34:29;;;;;;;14.60;13.30;;;21.00;49.30;;;;;;5071997;28;20447;-55
2023/06/09 04:36:59;;;;;;;14.77;13.57;;;21.00;49.20;;;;;;5071805;28;20939;-54
2023/06/09 04:39:28;;;;;;;13.70;12.40;;;21.10;49.40;;;;;;5071574;28;20411;-55
2023/06/09 04:41:54;;;;;;;14.97;13.47;;;21.10;49.40;;;;;;5071860;28;20521;-59
2023/06/09 04:44:21;;;;;;;15.83;14.40;;;21.10;49.50;;;;;;5072094;28;20437;-56
2023/06/09 04:46:49;;;;;;;15.00;13.60;;;21.20;49.50;;;;;;5071813;28;20192;-53
2023/06/09 04:49:17;;;;;;;15.60;14.20;;;21.20;49.50;;;;;;5071886;28;20544;-53
2023/06/09 04:51:49;;;;;;;14.47;13.17;;;21.30;49.50;;;;;;5071719;28;20402;-55
2023/06/09 04:54:20;;;;;;;15.13;13.63;;;21.40;49.50;;;;;;5071745;28;20536;-58
2023/06/09 04:56:52;;;;;;;12.97;11.67;;;21.40;49.50;;;;;;5071575;28;20815;-55
2023/06/09 04:59:18;;;;;;;14.10;12.90;;;21.40;49.40;;;;;;5071636;28;20536;-51
2023/06/09 05:01:46;;;;;;;15.80;14.37;;;21.40;49.30;;;;;;5063765;28;20451;-56
2023/06/09 05:04:13;;;;;;;14.67;13.33;;;21.50;49.50;;;;;;5071224;28;20411;-56
2023/06/09 05:06:38;;;;;;;15.63;14.33;;;21.50;49.50;;;;;;5071611;28;20413;-54
2023/06/09 05:09:05;;;;;;;14.73;13.33;;;21.60;49.50;;;;;;5071479;28;20410;-53
2023/06/09 05:11:31;;;;;;;15.00;12.90;;;21.70;49.60;;;;;;5071423;28;20173;-57
2023/06/09 05:13:57;;;;;;;15.40;13.93;;;21.80;49.60;;;;;;5071493;28;20458;-56
2023/06/09 05:16:25;;;;;;;15.93;14.60;;;21.80;49.50;;;;;;5071538;28;20178;-53
2023/06/09 05:18:51;;;;;;;15.00;13.47;;;21.90;49.30;;;;;;5071407;28;20176;-60
2023/06/09 05:21:17;;;;;;;15.20;13.70;;;22.10;49.10;;;;;;5070167;28;20446;-55
2023/06/09 05:23:43;;;;;;;16.73;14.77;;;22.10;49.10;;;;;;5071670;28;20453;-56
2023/06/09 05:26:09;;;;;;;15.63;14.00;;;22.20;48.90;;;;;;5071405;28;20165;-58
2023/06/09 05:28:35;;;;;;;13.17;12.07;;;22.30;48.90;;;;;;5071712;28;20434;-53
2023/06/09 05:31:01;;;;;;;14.40;13.07;;;22.40;48.60;;;;;;5071470;28;20532;-52
2023/06/09 05:33:27;;;;;;;18.00;16.30;;;22.40;48.00;;;;;;5072642;28;20179;-55
2023/06/09 05:35:53;;;;;;;16.67;13.40;;;22.50;47.50;;;;;;5075073;28;20486;-53
2023/06/09 05:38:20;;;;;;;16.27;14.63;;;22.50;47.70;;;;;;5074948;28;20851;-53
2023/06/09 05:40:46;;;;;;;16.13;14.70;;;22.50;48.00;;;;;;5073399;28;20169;-57
2023/06/09 05:43:12;;;;;;;16.47;15.07;;;22.60;47.50;;;;;;5073605;28;20410;-59
2023/06/09 05:45:38;;;;;;;17.63;15.80;;;22.60;46.70;;;;;;5074857;28;20161;-56
2023/06/09 05:48:03;;;;;;;17.53;15.83;;;22.60;47.10;;;;;;5074663;28;20210;-59
2023/06/09 05:50:29;;;;;;;18.43;15.90;;;22.70;47.40;;;;;;5074751;28;20185;-59
2023/06/09 05:52:55;;;;;;;16.20;14.57;;;22.80;47.40;;;;;;5074707;28;20759;-57
2023/06/09 05:55:21;;;;;;;15.17;13.83;;;22.90;47.60;;;;;;5074616;28;20199;-57
2023/06/09 05:57:46;;;;;;;17.77;16.17;;;23.00;46.50;;;;;;5074615;28;20603;-57
2023/06/09 06:00:13;;;;;;;17.73;16.23;;;23.10;46.00;;;;;;5074313;28;20571;-56
2023/06/09 06:02:39;;;;;;;18.00;16.50;;;23.20;45.80;;;;;;5074399;28;20226;-55
2023/06/09 06:05:09;;;;;;;16.90;15.40;;;23.20;44.70;;;;;;5074428;28;20403;-54
2023/06/09 06:07:38;;;;;;;17.57;15.97;;;23.20;44.70;;;;;;5074351;28;20423;-57
2023/06/09 06:10:05;;;;;;;16.40;14.90;;;23.20;45.30;;;;;;5074202;28;20411;-56
2023/06/09 06:12:32;;;;;;;18.87;17.07;;;23.20;45.00;;;;;;5074201;28;20437;-55
2023/06/09 06:14:58;;;;;;;16.83;15.43;;;23.20;45.30;;;;;;5074301;28;20465;-59
2023/06/09 06:17:23;;;;;;;15.77;14.37;;;23.30;45.50;;;;;;5074131;28;20419;-56
2023/06/09 06:19:52;;;;;;;18.30;15.60;;;23.40;45.40;;;;;;5074081;28;20248;-54
2023/06/09 06:22:18;;;;;;;16.03;14.43;;;23.50;44.50;;;;;;5074209;28;20164;-56
2023/06/09 06:24:44;;;;;;;17.67;15.87;;;23.60;44.70;;;;;;5072880;28;20490;-59
2023/06/09 06:27:11;;;;;;;17.70;16.00;;;23.70;44.30;;;;;;5072740;28;20192;-54
2023/06/09 06:29:38;;;;;;;17.43;15.83;;;23.70;44.00;;;;;;5073786;28;20210;-59
2023/06/09 06:32:06;;;;;;;17.93;16.23;;;23.80;43.90;;;;;;5073847;28;20422;-58
2023/06/09 06:34:32;;;;;;;18.57;16.63;;;23.90;43.80;;;;;;5074097;28;20954;-56
2023/06/09 06:36:57;;;;;;;17.53;15.90;;;24.00;43.50;;;;;;5073776;28;20435;-56
2023/06/09 06:39:23;;;;;;;18.97;17.10;;;24.00;43.30;;;;;;5073568;28;20169;-60
2023/06/09 06:41:49;;;;;;;16.57;15.10;;;24.00;43.30;;;;;;5073729;28;20238;-56
2023/06/09 06:44:15;;;;;;;17.80;16.20;;;24.10;42.70;;;;;;5073303;28;20442;-58
2023/06/09 06:46:41;;;;;;;16.37;15.00;;;24.10;42.70;;;;;;5073377;28;20172;-57
2023/06/09 06:49:06;;;;;;;18.27;16.67;;;24.20;43.20;;;;;;5073857;28;20168;-54
2023/06/09 06:51:32;;;;;;;18.50;16.70;;;24.40;42.30;;;;;;5073743;28;20677;-58
2023/06/09 06:53:58;;;;;;;18.07;16.50;;;24.40;42.90;;;;;;5073430;28;20672;-54
2023/06/09 06:56:25;;;;;;;16.87;15.27;;;24.50;43.10;;;;;;5073520;28;20168;-53
2023/06/09 06:58:52;;;;;;;16.90;15.20;;;24.50;43.20;;;;;;5073380;28;20533;-57
2023/06/09 07:01:21;;;;;;;17.23;15.63;;;24.60;43.30;;;;;;5071599;28;20446;-54
2023/06/09 07:03:50;;;;;;;17.73;16.00;;;24.80;42.60;;;;;;5073227;28;20407;-56
2023/06/09 07:06:17;;;;;;;17.63;16.13;;;24.90;41.70;;;;;;5073609;28;20456;-57
2023/06/09 07:08:43;;;;;;;18.17;15.77;;;24.90;41.50;;;;;;5071825;28;20977;-54
2023/06/09 07:11:10;;;;;;;18.30;16.57;;;24.90;40.60;;;;;;5072976;28;20555;-55
2023/06/09 07:13:35;;;;;;;16.13;14.73;;;24.90;41.30;;;;;;5072896;28;20431;-60
2023/06/09 07:16:01;;;;;;;18.53;16.87;;;25.00;42.30;;;;;;5073122;28;20399;-58
2023/06/09 07:18:28;;;;;;;20.03;18.33;;;25.20;41.60;;;;;;5072929;28;20434;-56
2023/06/09 07:20:54;;;;;;;17.90;16.20;;;25.20;40.40;;;;;;5072739;28;20176;-57
2023/06/09 07:23:20;;;;;;;19.27;17.63;;;25.20;39.70;;;;;;5073190;28;20506;-55
2023/06/09 07:25:45;;;;;;;16.93;15.30;;;25.10;39.80;;;;;;5072864;28;20497;-58
2023/06/09 07:28:11;;;;;;;16.90;15.40;;;25.10;40.70;;;;;;5072728;28;20189;-54
2023/06/09 07:30:41;;;;;;;15.80;14.50;;;25.20;41.30;;;;;;5072565;28;20169;-57
2023/06/09 07:33:08;;;;;;;17.00;15.50;;;25.40;41.40;;;;;;5072926;28;20223;-55
2023/06/09 07:35:34;;;;;;;19.10;17.60;;;25.60;41.10;;;;;;5071356;28;20446;-59
2023/06/09 07:38:03;;;;;;;16.60;14.90;;;25.60;39.60;;;;;;5072835;28;20791;-59
2023/06/09 07:40:29;;;;;;;19.60;17.60;;;25.70;40.50;;;;;;5072546;28;20411;-53
2023/06/09 07:42:56;;;;;;;15.17;13.00;;;25.80;40.00;;;;;;5072509;28;20402;-55
2023/06/09 07:45:22;;;;;;;17.67;16.07;;;25.90;40.30;;;;;;5072492;28;20438;-56
2023/06/09 07:47:48;;;;;;;16.90;14.87;;;26.00;39.70;;;;;;5072434;28;20466;-58
2023/06/09 07:50:14;;;;;;;18.97;17.37;;;26.10;40.10;;;;;;5072243;28;20222;-57
2023/06/09 07:52:39;;;;;;;17.50;15.90;;;26.20;39.50;;;;;;5072297;28;20179;-53
2023/06/09 07:55:09;;;;;;;17.50;15.80;;;26.30;39.90;;;;;;5071948;28;20431;-55
2023/06/09 07:57:34;;;;;;;18.00;16.40;;;26.40;39.20;;;;;;5071919;28;20195;-59
2023/06/09 08:00:01;;;;;;;19.30;17.50;;;26.60;39.70;;;;;;5072048;28;20485;-56
2023/06/09 08:02:28;;;;;;;18.40;16.90;;;26.70;39.80;;;;;;5072435;28;20199;-58
2023/06/09 08:04:54;;;;;;;19.63;17.80;;;26.90;39.20;;;;;;5072221;28;20403;-57
2023/06/09 08:07:19;;;;;;;19.67;17.73;;;27.00;38.50;;;;;;5072174;28;21020;-56
2023/06/09 08:09:45;;;;;;;20.97;19.17;;;26.90;37.90;;;;;;5071907;28;20826;-58
2023/06/09 08:12:11;;;;;;;19.30;17.40;;;26.90;38.40;;;;;;5072018;28;20180;-58
2023/06/09 08:14:37;;;;;;;18.63;16.93;;;26.90;38.20;;;;;;5072226;28;20200;-54
2023/06/09 08:17:04;;;;;;;18.60;16.80;;;26.80;38.10;;;;;;5071952;28;20998;-58
2023/06/09 08:19:30;;;;;;;19.77;17.93;;;26.90;38.70;;;;;;5071915;28;20469;-56
2023/06/09 08:21:57;;;;;;;19.57;17.70;;;27.00;40.00;;;;;;5072288;28;20810;-53
2023/06/09 08:24:23;;;;;;;20.23;18.33;;;27.10;38.70;;;;;;5071805;28;20555;-55
2023/06/09 08:26:49;;;;;;;18.00;16.23;;;27.30;37.60;;;;;;5071905;28;20803;-55
2023/06/09 08:29:16;;;;;;;18.57;16.93;;;27.40;38.80;;;;;;5072090;28;20414;-52
2023/06/09 08:31:42;;;;;;;18.40;16.80;;;27.50;38.00;;;;;;5071921;28;20406;-55
2023/06/09 08:34:07;;;;;;;18.00;16.40;;;27.60;38.60;;;;;;5072180;28;20455;-53
2023/06/09 08:36:33;;;;;;;18.23;16.53;;;27.80;38.30;;;;;;5071815;28;20467;-54
2023/06/09 08:38:59;;;;;;;18.13;16.63;;;28.00;38.10;;;;;;5072046;28;20210;-57
2023/06/09 08:41:32;;;;;;;17.87;16.07;;;28.10;37.30;;;;;;5071821;28;20905;-53
2023/06/09 08:43:58;;;;;;;17.70;16.27;;;28.10;36.90;;;;;;5072056;28;20229;-54
2023/06/09 08:46:29;;;;;;;19.87;17.70;;;28.20;37.50;;;;;;5072057;28;20491;-56
2023/06/09 08:48:59;;;;;;;17.20;15.70;;;28.30;36.70;;;;;;5071861;28;20410;-53
2023/06/09 08:51:26;;;;;;;17.17;15.63;;;28.40;36.70;;;;;;5064451;28;20550;-58
2023/06/09 08:53:52;;;;;;;18.90;17.20;;;28.50;36.70;;;;;;5051598;28;20458;-56
2023/06/09 08:56:21;;;;;;;15.07;13.80;;;28.60;35.70;;;;;;5051674;28;20420;-53
2023/06/09 08:58:48;;;;;;;16.60;15.10;;;28.60;35.30;;;;;;5051587;28;20438;-56
2023/06/09 09:01:17;;;;;;;15.27;13.70;;;28.50;33.60;;;;;;5051649;28;20444;-55
2023/06/09 09:03:43;;;;;;;17.50;15.10;;;28.50;35.90;;;;;;5051672;28;20404;-53
2023/06/09 09:06:09;;;;;;;15.90;14.37;;;28.50;36.20;;;;;;5051532;28;20436;-52
2023/06/09 09:08:35;;;;;;;16.00;14.70;;;28.70;35.70;;;;;;5069613;28;20483;-54
2023/06/09 09:11:01;;;;;;;15.37;14.17;;;28.70;34.90;;;;;;5075416;28;20406;-52
2023/06/09 09:13:31;;;;;;;14.70;13.47;;;28.90;34.80;;;;;;5074759;28;20433;-55
2023/06/09 09:15:59;;;;;;;14.00;12.80;;;29.00;35.40;;;;;;5075667;28;20168;-55
2023/06/09 09:18:35;;;;;;;13.50;12.10;;;29.20;35.60;;;;;;5075236;28;20438;-53
2023/06/09 09:21:01;;;;;;;15.00;13.60;;;29.30;35.30;;;;;;5074948;28;20414;-52
2023/06/09 09:23:32;;;;;;;14.03;12.97;;;29.40;34.50;;;;;;5075391;28;20406;-55
2023/06/09 09:26:03;;;;;;;12.17;11.17;;;29.50;34.30;;;;;;5075263;28;20441;-52
2023/06/09 09:28:42;;;;;;;12.73;11.47;;;29.60;34.20;;;;;;5074984;28;20431;-52
2023/06/09 09:31:08;;;;;;;13.10;12.00;;;29.80;33.60;;;;;;5074823;28;20417;-55
2023/06/09 09:33:39;;;;;;;13.93;12.73;;;29.80;31.60;;;;;;5075254;28;20502;-53
2023/06/09 09:36:09;;;;;;;14.43;13.13;;;29.80;34.00;;;;;;5075020;28;20388;-56
2023/06/09 09:38:35;;;;;;;13.70;12.40;;;29.90;34.30;;;;;;5074874;28;20521;-53
2023/06/09 09:41:03;;;;;;;12.80;11.67;;;30.00;34.30;;;;;;5074833;28;20411;-53
2023/06/09 09:43:30;;;;;;;11.30;10.17;;;30.10;33.10;;;;;;5074903;28;20413;-53
2023/06/09 09:46:01;;;;;;;13.90;11.87;;;30.20;33.40;;;;;;5075106;28;20441;-54
2023/06/09 09:48:26;;;;;;;13.40;11.67;;;30.30;33.80;;;;;;5074751;28;20967;-53
2023/06/09 09:50:55;;;;;;;13.47;12.37;;;30.50;32.90;;;;;;5074430;28;20502;-53
2023/06/09 09:53:25;;;;;;;12.70;11.70;;;30.60;32.30;;;;;;5074657;28;20177;-55
2023/06/09 09:55:54;;;;;;;9.90;9.10;;;30.60;30.80;;;;;;5074957;28;20400;-53
2023/06/09 09:58:26;;;;;;;10.47;9.67;;;30.70;30.60;;;;;;5074694;28;20447;-53
2023/06/09 10:00:57;;;;;;;9.10;8.20;;;30.70;30.60;;;;;;5074566;28;20407;-55
2023/06/09 10:03:23;;;;;;;9.10;8.23;;;30.80;29.60;;;;;;5074763;28;20403;-53
2023/06/09 10:05:49;;;;;;;8.60;7.80;;;30.80;29.90;;;;;;5074432;28;20499;-54
2023/06/09 10:08:19;;;;;;;18.67;8.33;;;30.90;27.80;;;;;;5074396;28;20484;-55
2023/06/09 10:10:46;;;;;;;8.53;7.33;;;30.90;28.60;;;;;;5073996;28;20910;-53
2023/06/09 10:13:12;;;;;;;9.53;8.40;;;31.00;28.90;;;;;;5074131;28;20508;-55
2023/06/09 10:15:42;;;;;;;8.47;7.77;;;31.00;26.30;;;;;;5074434;28;20456;-57
2023/06/09 10:18:09;;;;;;;8.70;7.90;;;31.00;29.00;;;;;;5074498;28;20430;-54
2023/06/09 10:20:36;;;;;;;8.63;7.67;;;31.10;28.60;;;;;;5073519;28;20771;-52
2023/06/09 10:23:04;;;;;;;9.00;7.67;;;31.10;28.20;;;;;;5072741;28;20896;-57
2023/06/09 10:25:30;;;;;;;9.30;8.50;;;31.20;28.40;;;;;;5074076;28;20421;-53
2023/06/09 10:27:56;;;;;;;8.67;7.83;;;31.20;28.30;;;;;;5074180;28;20844;-53
2023/06/09 10:30:22;;;;;;;10.87;10.00;;;31.10;24.90;;;;;;5073806;28;20463;-54
2023/06/09 10:32:55;;;;;;;11.47;8.60;;;31.00;24.50;;;;;;5073958;28;20466;-56
2023/06/09 10:35:31;;;;;;;8.97;8.03;;;31.10;26.10;;;;;;5074103;28;20441;-53
2023/06/09 10:37:58;;;;;;;8.13;7.40;;;31.10;26.90;;;;;;5074025;28;20431;-54
2023/06/09 10:40:37;;;;;;;10.63;8.60;;;31.00;24.80;;;;;;5073752;28;20406;-54
2023/06/09 10:43:08;;;;;;;9.20;8.50;;;31.10;24.80;;;;;;5073849;28;20491;-54
2023/06/09 10:45:54;;;;;;;9.07;8.37;;;31.10;26.40;;;;;;5073964;28;20422;-55
2023/06/09 10:48:43;;;;;;;8.83;8.00;;;31.20;26.90;;;;;;5073808;28;20438;-52
2023/06/09 10:51:27;;;;;;;8.87;8.07;;;31.30;23.90;;;;;;5073645;28;20415;-55
2023/06/09 10:54:07;;;;;;;8.10;7.30;;;31.30;26.10;;;;;;5073459;28;20446;-55
2023/06/09 10:56:35;;;;;;;8.57;7.87;;;31.40;24.40;;;;;;5073280;28;20920;-53
2023/06/09 10:59:01;;;;;;;9.47;8.47;;;31.40;22.90;;;;;;5073326;28;20430;-58
2023/06/09 11:01:26;;;;;;;8.30;7.20;;;31.30;24.80;;;;;;5073155;28;20434;-52
2023/06/09 11:03:52;;;;;;;9.83;7.67;;;31.30;22.00;;;;;;5073294;28;20172;-55
2023/06/09 11:06:18;;;;;;;9.00;8.10;;;31.30;23.60;;;;;;5073283;28;20175;-53
2023/06/09 11:09:11;;;;;;;8.33;7.63;;;31.30;23.60;;;;;;5073151;28;20200;-55
2023/06/09 11:11:54;;;;;;;9.60;8.80;;;31.50;24.80;;;;;;5072932;28;20971;-54
2023/06/09 11:14:44;;;;;;;8.80;7.73;;;31.70;22.30;;;;;;5073175;28;20446;-57
2023/06/09 11:17:17;;;;;;;9.70;8.10;;;31.60;23.60;;;;;;5072920;28;20929;-54
2023/06/09 11:19:43;;;;;;;10.13;9.23;;;31.50;22.30;;;;;;5072727;28;21016;-53
2023/06/09 11:22:11;;;;;;;9.10;7.70;;;31.50;23.10;;;;;;5073175;28;20430;-56
2023/06/09 11:24:49;;;;;;;9.07;8.37;;;31.40;23.00;;;;;;5073048;28;20202;-53
2023/06/09 11:27:19;;;;;;;8.03;7.10;;;31.50;24.30;;;;;;5072741;28;20431;-55
2023/06/09 11:30:09;;;;;;;8.77;7.97;;;31.50;23.80;;;;;;5072497;28;20407;-53
2023/06/09 11:32:57;;;;;;;8.87;7.30;;;31.60;23.40;;;;;;5072352;28;20439;-54
2023/06/09 11:35:28;;;;;;;10.03;9.13;;;31.70;23.60;;;;;;5072653;28;20528;-52
2023/06/09 11:37:57;;;;;;;9.73;8.80;;;31.70;22.10;;;;;;5072516;28;20437;-55
2023/06/09 11:40:23;;;;;;;7.63;7.00;;;31.70;22.80;;;;;;5072590;28;20478;-54
2023/06/09 11:42:50;;;;;;;8.20;7.50;;;31.90;22.00;;;;;;5072475;28;20494;-55
2023/06/09 11:45:16;;;;;;;9.37;8.47;;;31.90;21.70;;;;;;5072665;28;20420;-54
2023/06/09 11:47:44;;;;;;;9.60;8.70;;;31.90;20.90;;;;;;5072424;28;20430;-54
2023/06/09 11:50:15;;;;;;;9.23;8.53;;;32.00;22.00;;;;;;5072200;28;20407;-55
2023/06/09 11:52:45;;;;;;;9.10;8.40;;;32.00;22.40;;;;;;5072383;28;20418;-55
2023/06/09 11:55:14;;;;;;;8.57;7.77;;;32.10;22.60;;;;;;5072374;28;20465;-53
2023/06/09 11:57:41;;;;;;;8.60;7.90;;;32.10;22.50;;;;;;5072445;28;20784;-56
2023/06/09 12:00:17;;;;;;;9.13;8.40;;;32.20;23.00;;;;;;5072075;28;20918;-52
2023/06/09 12:02:47;;;;;;;8.50;7.67;;;32.20;22.20;;;;;;5072292;28;20410;-56
2023/06/09 12:05:14;;;;;;;9.30;8.30;;;32.30;22.10;;;;;;5072133;28;20926;-54
2023/06/09 12:07:44;;;;;;;8.40;7.70;;;32.30;21.90;;;;;;5070992;28;20434;-54
2023/06/09 12:10:12;;;;;;;8.77;7.90;;;32.50;22.00;;;;;;5072327;28;20422;-55
2023/06/09 12:12:48;;;;;;;11.80;7.73;;;32.60;21.70;;;;;;5070809;28;20525;-52
2023/06/09 12:15:16;;;;;;;7.37;6.67;;;32.50;19.90;;;;;;5072113;28;20449;-54
2023/06/09 12:17:43;;;;;;;6.67;6.07;;;32.40;19.50;;;;;;5071943;28;20427;-55
2023/06/09 12:20:20;;;;;;;8.53;5.90;;;32.40;20.20;;;;;;5072166;28;20763;-54
2023/06/09 12:22:46;;;;;;;7.20;6.60;;;32.40;19.40;;;;;;5072244;28;20821;-55
2023/06/09 12:25:26;;;;;;;7.43;6.57;;;32.40;20.80;;;;;;5072261;28;20975;-54
2023/06/09 12:27:56;;;;;;;6.77;6.07;;;32.50;21.90;;;;;;5071953;28;20216;-53
2023/06/09 12:30:38;;;;;;;8.97;6.37;;;32.60;20.00;;;;;;5071663;28;20398;-54
2023/06/09 12:33:09;;;;;;;5.97;5.47;;;32.80;22.00;;;;;;5071866;28;20403;-53
2023/06/09 12:35:40;;;;;;;6.50;5.70;;;32.90;19.40;;;;;;5072104;28;20470;-56
2023/06/09 12:38:10;;;;;;;9.27;8.37;;;33.10;21.10;;;;;;5071811;28;20957;-54